Terminal Aerodrome Forecast
Issued by NWS Lake Charles, LA

Home | Current Version | Previous Version | Text Only | Print | Product List | Glossary On
Versions: 1 2 3 4 5 6 7 8 9 10 11 12 13 14 15 16 17 18 19 20 21 22 23
000
FTUS44 KLCH 301421 AAA
TAFLFT
TAF AMD
KLFT 301421Z 3014/0112 24006KT P6SM VCSH SCT025
      TEMPO 3014/3016 BKN025
     FM301600 23011KT P6SM VCTS BKN035CB
     FM010200 VRB03KT P6SM BKN250=

USA.gov is the U.S. government's official web portal to all federal, state and local government web resources and services.